createdAt,value
2023-01-05T00:01:38.998Z,5.22
2023-01-05T00:04:07.959Z,5.30
2023-01-05T00:06:37.363Z,5.43
2023-01-05T00:09:06.156Z,5.57
2023-01-05T00:11:52.384Z,5.32
2023-01-05T00:14:39.475Z,5.55
2023-01-05T00:17:28.858Z,5.20
2023-01-05T00:20:14.953Z,5.78
2023-01-05T00:22:46.652Z,5.15
2023-01-05T00:25:16.295Z,5.40
2023-01-05T00:27:45.501Z,5.57
2023-01-05T00:30:15.303Z,5.53
2023-01-05T00:32:45.338Z,5.55
2023-01-05T00:35:14.834Z,5.68
2023-01-05T00:37:43.627Z,5.80
2023-01-05T00:40:13.454Z,5.45
2023-01-05T00:42:42.155Z,5.15
2023-01-05T00:45:12.449Z,4.97
2023-01-05T00:47:40.976Z,5.25
2023-01-05T00:50:11.819Z,5.65
2023-01-05T00:52:40.394Z,5.75
2023-01-05T00:55:09.443Z,5.97
2023-01-05T00:57:37.942Z,4.95
2023-01-05T01:00:07.049Z,5.70
2023-01-05T01:02:35.558Z,5.38
2023-01-05T01:05:04.014Z,4.97
2023-01-05T01:07:33.896Z,4.47
2023-01-05T01:10:02.346Z,5.90
2023-01-05T01:12:30.784Z,5.20
2023-01-05T01:14:59.204Z,5.18
2023-01-05T01:17:27.664Z,5.22
2023-01-05T01:19:56.092Z,4.32
2023-01-05T01:22:24.520Z,5.13
2023-01-05T01:24:55.088Z,4.38
2023-01-05T01:27:23.487Z,5.22
2023-01-05T01:29:51.927Z,5.30
2023-01-05T01:32:20.452Z,5.75
2023-01-05T01:34:48.891Z,4.70
2023-01-05T01:37:17.425Z,5.22
2023-01-05T01:39:45.857Z,5.03
2023-01-05T01:42:16.623Z,4.78
2023-01-05T01:44:56.200Z,4.90
2023-01-05T01:47:28.160Z,5.28
2023-01-05T01:49:58.316Z,4.50
2023-01-05T01:52:27.321Z,5.80
2023-01-05T01:54:56.401Z,4.28
2023-01-05T01:57:27.119Z,5.13
2023-01-05T01:59:55.597Z,5.22
2023-01-05T02:02:25.006Z,4.97
2023-01-05T02:04:53.707Z,5.03
2023-01-05T02:07:22.227Z,5.18
2023-01-05T02:09:50.674Z,4.53
2023-01-05T02:12:26.042Z,5.68
2023-01-05T02:15:02.718Z,5.63
2023-01-05T02:17:36.473Z,5.22
2023-01-05T02:20:28.955Z,4.70
2023-01-05T02:23:12.499Z,5.30
2023-01-05T02:25:53.218Z,5.22
2023-01-05T02:28:29.300Z,5.82
2023-01-05T02:31:02.486Z,5.15
2023-01-05T02:33:37.781Z,5.30
2023-01-05T02:36:08.419Z,5.55
2023-01-05T02:38:39.625Z,6.00
2023-01-05T02:41:10.346Z,5.57
2023-01-05T02:43:38.856Z,5.50
2023-01-05T02:46:08.795Z,5.57
2023-01-05T02:48:37.285Z,5.00
2023-01-05T02:51:07.476Z,5.28
2023-01-05T02:53:37.712Z,5.95
2023-01-05T02:56:08.599Z,5.82
2023-01-05T02:58:39.168Z,5.20
2023-01-05T03:01:11.001Z,4.90
2023-01-05T03:03:41.748Z,5.53
2023-01-05T03:06:13.570Z,5.32
2023-01-05T03:08:43.615Z,5.63
2023-01-05T03:11:30.866Z,5.40
2023-01-05T03:14:01.486Z,5.22
2023-01-05T03:16:33.137Z,5.22
2023-01-05T03:19:21.163Z,5.78
2023-01-05T03:22:07.673Z,5.50
2023-01-05T03:24:54.300Z,5.15
2023-01-05T03:27:40.788Z,5.93
2023-01-05T03:30:27.633Z,5.32
2023-01-05T03:33:20.383Z,6.15
2023-01-05T03:35:53.582Z,6.10
2023-01-05T03:38:25.297Z,5.78
2023-01-05T03:40:54.468Z,6.10
2023-01-05T03:43:23.387Z,5.60
2023-01-05T03:45:54.035Z,6.47
2023-01-05T03:48:24.485Z,6.40
2023-01-05T03:50:53.066Z,6.15
2023-01-05T03:53:21.507Z,5.65
2023-01-05T03:55:49.900Z,5.90
2023-01-05T03:58:18.330Z,5.78
2023-01-05T04:00:46.744Z,5.95
2023-01-05T04:03:15.280Z,6.05
2023-01-05T04:05:45.428Z,5.40
2023-01-05T04:08:13.856Z,5.07
2023-01-05T04:10:42.290Z,5.60
2023-01-05T04:13:10.763Z,5.85
2023-01-05T04:15:39.252Z,6.05
2023-01-05T04:18:07.722Z,5.45
2023-01-05T04:20:36.148Z,5.13
2023-01-05T04:23:05.942Z,6.28
2023-01-05T04:25:34.392Z,6.25
2023-01-05T04:28:02.811Z,5.82
2023-01-05T04:30:31.274Z,6.15
2023-01-05T04:32:59.669Z,5.35
2023-01-05T04:35:28.086Z,6.10
2023-01-05T04:37:56.501Z,5.22
2023-01-05T04:40:26.350Z,5.18
2023-01-05T04:42:54.782Z,5.80
2023-01-05T04:45:23.226Z,5.20
2023-01-05T04:47:52.993Z,5.90
2023-01-05T04:50:21.423Z,6.13
2023-01-05T04:52:49.850Z,5.75
2023-01-05T04:55:18.291Z,5.65
2023-01-05T04:57:48.083Z,5.90
2023-01-05T05:00:17.044Z,5.55
2023-01-05T05:02:45.581Z,6.00
2023-01-05T05:05:14.044Z,4.90
2023-01-05T05:07:42.475Z,4.78
2023-01-05T05:10:11.145Z,5.20
2023-01-05T05:12:39.597Z,5.10
2023-01-05T05:15:10.458Z,5.45
2023-01-05T05:17:38.873Z,6.22
2023-01-05T05:20:08.051Z,6.50
2023-01-05T05:22:36.696Z,5.80
2023-01-05T05:25:05.413Z,6.05
2023-01-05T05:27:33.870Z,5.55
2023-01-05T05:30:02.341Z,5.97
2023-01-05T05:32:32.228Z,6.57
2023-01-05T05:35:00.664Z,4.90
2023-01-05T05:37:29.104Z,5.53
2023-01-05T05:39:57.572Z,5.55
2023-01-05T05:42:26.069Z,5.30
2023-01-05T05:44:54.490Z,5.28
2023-01-05T05:47:22.929Z,5.10
2023-01-05T05:49:52.740Z,5.80
2023-01-05T05:52:21.160Z,5.72
2023-01-05T05:54:49.624Z,5.78
2023-01-05T05:57:18.050Z,5.82
2023-01-05T05:59:46.539Z,5.50
2023-01-05T06:02:16.743Z,6.30
2023-01-05T06:04:45.213Z,6.50
2023-01-05T06:07:15.004Z,6.20
2023-01-05T06:09:43.437Z,7.30
2023-01-05T06:12:11.971Z,6.90
2023-01-05T06:14:40.396Z,6.10
2023-01-05T06:17:08.826Z,6.47
2023-01-05T06:19:37.262Z,6.30
2023-01-05T06:22:05.802Z,5.97
2023-01-05T06:24:35.610Z,6.28
2023-01-05T06:27:04.022Z,6.53
2023-01-05T06:29:32.461Z,6.65
2023-01-05T06:32:03.514Z,6.68
2023-01-05T06:34:32.019Z,6.78
2023-01-05T06:37:02.354Z,6.18
2023-01-05T06:39:33.078Z,6.22
2023-01-05T06:42:03.264Z,6.45
2023-01-05T06:44:31.826Z,7.20
2023-01-05T06:47:00.239Z,7.28
2023-01-05T06:49:28.679Z,6.38
2023-01-05T06:51:57.219Z,6.97
2023-01-05T06:54:25.653Z,7.60
2023-01-05T06:56:54.060Z,6.32
2023-01-05T06:59:23.870Z,6.60
2023-01-05T07:01:52.363Z,6.93
2023-01-05T07:04:20.977Z,7.13
2023-01-05T07:06:49.415Z,7.18
2023-01-05T07:09:17.925Z,6.63
2023-01-05T07:11:46.327Z,6.63
2023-01-05T07:14:15.837Z,6.13
2023-01-05T07:16:45.625Z,7.93
2023-01-05T07:19:14.108Z,7.30
2023-01-05T07:21:42.493Z,7.10
2023-01-05T07:24:11.106Z,6.88
2023-01-05T07:26:39.531Z,6.57
2023-01-05T07:29:07.987Z,6.00
2023-01-05T07:31:36.588Z,6.97
2023-01-05T07:34:07.248Z,7.03
2023-01-05T07:36:35.675Z,7.25
2023-01-05T07:39:04.149Z,8.50
2023-01-05T07:41:32.586Z,7.38
2023-01-05T07:44:01.033Z,7.88
2023-01-05T07:46:29.457Z,7.15
2023-01-05T07:48:58.605Z,7.90
2023-01-05T07:51:28.381Z,7.28
2023-01-05T07:54:06.480Z,8.35
2023-01-05T07:56:34.912Z,7.82
2023-01-05T07:59:03.343Z,6.60
2023-01-05T08:01:31.802Z,7.13
2023-01-05T08:04:00.310Z,7.60
2023-01-05T08:06:30.119Z,7.93
2023-01-05T08:09:18.562Z,8.00
2023-01-05T08:11:47.038Z,7.10
2023-01-05T08:14:15.504Z,9.07
2023-01-05T08:16:44.034Z,7.78
2023-01-05T08:19:12.621Z,7.22
2023-01-05T08:21:42.393Z,8.55
2023-01-05T08:24:10.844Z,7.38
2023-01-05T08:26:39.911Z,8.98
2023-01-05T08:29:08.406Z,8.18
2023-01-05T08:31:37.691Z,8.93
2023-01-05T08:34:06.772Z,8.07
2023-01-05T08:36:35.564Z,8.05
2023-01-05T08:39:05.903Z,9.27
2023-01-05T08:41:35.824Z,7.70
2023-01-05T08:44:05.552Z,8.50
2023-01-05T08:46:35.649Z,8.07
2023-01-05T08:49:05.148Z,8.10
2023-01-05T08:51:34.251Z,8.07
2023-01-05T08:54:02.846Z,8.07
2023-01-05T08:56:38.343Z,8.27
2023-01-05T08:59:07.884Z,9.02
2023-01-05T09:01:36.913Z,8.63
2023-01-05T09:04:05.820Z,8.05
2023-01-05T09:06:34.243Z,8.50
2023-01-05T09:09:02.867Z,7.90
2023-01-05T09:11:34.701Z,8.38
2023-01-05T09:14:03.809Z,7.35
2023-01-05T09:19:21.682Z,7.85
2023-01-05T09:21:50.380Z,7.38
2023-01-05T09:24:18.848Z,8.35
2023-01-05T09:26:48.645Z,7.75
2023-01-05T09:29:17.271Z,7.25
2023-01-05T09:31:46.146Z,8.43
2023-01-05T09:34:14.627Z,7.82
2023-01-05T09:36:43.025Z,8.70
2023-01-05T09:39:11.566Z,7.68
2023-01-05T09:41:41.541Z,9.02
2023-01-05T09:44:14.225Z,7.57
2023-01-05T09:46:46.537Z,7.70
2023-01-05T09:49:15.971Z,7.85
2023-01-05T09:51:44.899Z,8.98
2023-01-05T09:54:18.251Z,9.40
2023-01-05T09:59:39.792Z,8.05
2023-01-05T10:02:14.485Z,8.02
2023-01-05T10:04:43.121Z,9.20
2023-01-05T10:07:18.054Z,9.23
2023-01-05T10:09:47.772Z,9.02
2023-01-05T10:12:39.434Z,8.10
2023-01-05T10:15:09.963Z,8.13
2023-01-05T10:17:42.739Z,8.20
2023-01-05T10:20:26.904Z,8.20
2023-01-05T10:22:59.876Z,8.38
2023-01-05T10:25:31.567Z,8.23
2023-01-05T10:28:04.092Z,7.25
2023-01-05T10:30:43.648Z,7.70
2023-01-05T10:33:39.660Z,7.45
2023-01-05T10:36:13.060Z,7.35
2023-01-05T10:38:49.385Z,8.30
2023-01-05T10:41:21.785Z,7.65
2023-01-05T10:43:56.831Z,8.25
2023-01-05T10:46:40.723Z,6.57
2023-01-05T10:49:18.737Z,6.93
2023-01-05T10:51:52.804Z,7.95
2023-01-05T10:54:28.688Z,6.93
2023-01-05T10:56:57.112Z,5.65
2023-01-05T10:59:25.581Z,6.97
2023-01-05T11:01:55.522Z,6.40
2023-01-05T11:04:35.367Z,7.22
2023-01-05T11:07:05.411Z,6.55
2023-01-05T11:09:33.968Z,7.40
2023-01-05T11:12:04.899Z,6.25
2023-01-05T11:14:35.360Z,6.25
2023-01-05T11:17:06.294Z,5.45
2023-01-05T11:19:37.597Z,7.50
2023-01-05T11:22:06.045Z,7.18
2023-01-05T11:24:35.355Z,7.47
2023-01-05T11:27:05.565Z,6.88
2023-01-05T11:29:34.066Z,6.72
2023-01-05T11:32:04.017Z,5.32
2023-01-05T11:34:36.375Z,6.25
2023-01-05T11:37:08.335Z,5.68
2023-01-05T11:39:40.060Z,5.93
2023-01-05T11:42:25.079Z,6.10
2023-01-05T11:44:55.674Z,5.93
2023-01-05T11:47:28.459Z,5.78
2023-01-05T11:50:09.453Z,6.03
2023-01-05T11:52:39.498Z,6.20
2023-01-05T11:55:29.996Z,5.90
2023-01-05T11:58:11.265Z,6.30
2023-01-05T12:00:44.948Z,6.20
2023-01-05T12:03:25.382Z,5.72
2023-01-05T12:05:57.221Z,5.57
2023-01-05T12:08:29.752Z,5.55
2023-01-05T12:11:04.464Z,5.07
2023-01-05T12:13:46.136Z,5.50
2023-01-05T12:16:20.911Z,5.80
2023-01-05T12:18:59.068Z,5.20
2023-01-05T12:21:29.538Z,5.00
2023-01-05T12:24:08.245Z,5.00
2023-01-05T12:26:40.333Z,4.93
2023-01-05T12:30:43.667Z,5.65
2023-01-05T12:35:14.084Z,5.40
2023-01-05T12:37:49.422Z,5.82
2023-01-05T12:40:33.929Z,5.68
2023-01-05T12:43:05.513Z,5.95
2023-01-05T12:45:44.163Z,5.80
2023-01-05T12:48:15.734Z,5.88
2023-01-05T12:50:48.656Z,5.63
2023-01-05T12:53:23.604Z,6.88
2023-01-05T12:55:53.764Z,7.13
2023-01-05T12:58:25.693Z,7.47
2023-01-05T13:00:55.276Z,7.60
2023-01-05T13:03:25.718Z,6.50
2023-01-05T13:05:58.319Z,7.50
2023-01-05T13:08:30.895Z,6.43
2023-01-05T13:11:02.005Z,7.22
2023-01-05T13:13:32.266Z,6.95
2023-01-05T13:16:04.702Z,7.32
2023-01-05T13:18:34.118Z,6.40
2023-01-05T13:21:06.856Z,6.65
2023-01-05T13:23:42.416Z,6.97
2023-01-05T13:26:13.429Z,6.28
2023-01-05T13:28:41.972Z,6.20
2023-01-05T13:31:19.598Z,6.30
2023-01-05T13:33:56.690Z,6.32
2023-01-05T13:36:30.876Z,7.45
2023-01-05T13:39:19.091Z,6.55
2023-01-05T13:41:59.560Z,6.95
2023-01-05T13:44:44.269Z,6.82
2023-01-05T13:47:23.781Z,7.43
2023-01-05T13:50:13.873Z,8.20
2023-01-05T13:52:48.968Z,7.15
2023-01-05T13:55:25.722Z,8.85
2023-01-05T13:57:56.625Z,7.30
2023-01-05T14:00:27.931Z,7.35
2023-01-05T14:03:06.993Z,7.55
2023-01-05T14:05:36.648Z,8.63
2023-01-05T14:08:07.491Z,8.60
2023-01-05T14:10:36.093Z,7.97
2023-01-05T14:13:06.925Z,8.65
2023-01-05T14:15:40.965Z,8.45
2023-01-05T14:18:09.952Z,7.80
2023-01-05T14:20:40.983Z,7.38
2023-01-05T14:23:24.301Z,8.20
2023-01-05T14:25:53.996Z,7.82
2023-01-05T14:28:25.412Z,7.82
2023-01-05T14:30:54.230Z,8.50
2023-01-05T14:33:22.930Z,8.18
2023-01-05T14:35:51.603Z,8.30
2023-01-05T14:38:23.243Z,8.20
2023-01-05T14:40:55.657Z,7.93
2023-01-05T14:43:29.124Z,8.80
2023-01-05T14:45:59.692Z,8.10
2023-01-05T14:48:30.467Z,7.75
2023-01-05T14:51:16.404Z,8.50
2023-01-05T14:53:46.016Z,7.70
2023-01-05T14:56:19.503Z,8.80
2023-01-05T14:59:07.834Z,8.20
2023-01-05T15:04:15.485Z,7.13
2023-01-05T15:07:00.848Z,6.95
2023-01-05T15:09:36.453Z,7.22
2023-01-05T15:12:20.402Z,6.75
2023-01-05T15:14:59.576Z,7.35
2023-01-05T15:17:42.194Z,6.22
2023-01-05T15:20:37.891Z,7.55
2023-01-05T15:23:13.202Z,7.20
2023-01-05T15:25:58.126Z,6.95
2023-01-05T15:28:43.643Z,7.18
2023-01-05T15:31:29.879Z,7.88
2023-01-05T15:34:02.262Z,6.65
2023-01-05T15:36:32.063Z,6.53
2023-01-05T15:39:00.514Z,7.22
2023-01-05T15:41:29.626Z,7.28
2023-01-05T15:43:58.118Z,7.38
2023-01-05T15:46:34.881Z,6.25
2023-01-05T15:49:03.439Z,7.20
2023-01-05T15:51:34.001Z,8.25
2023-01-05T15:54:04.629Z,7.10
2023-01-05T15:56:34.313Z,7.32
2023-01-05T15:59:03.316Z,7.00
2023-01-05T16:01:33.113Z,7.72
2023-01-05T16:04:09.371Z,7.53
2023-01-05T16:06:39.672Z,7.15
2023-01-05T16:09:11.877Z,6.93
2023-01-05T16:11:42.939Z,7.60
2023-01-05T16:14:15.170Z,8.50
2023-01-05T16:16:54.404Z,8.75
2023-01-05T16:19:26.578Z,8.52
2023-01-05T16:21:57.227Z,8.35
2023-01-05T16:24:28.115Z,7.90
2023-01-05T16:26:56.746Z,7.38
2023-01-05T16:29:33.337Z,7.88
2023-01-05T16:32:03.459Z,7.40
2023-01-05T16:34:33.198Z,7.85
2023-01-05T16:37:02.676Z,7.32
2023-01-05T16:39:34.941Z,7.00
2023-01-05T16:42:24.655Z,7.13
2023-01-05T16:44:54.074Z,7.10
2023-01-05T16:47:32.747Z,7.55
2023-01-05T16:50:01.177Z,8.00
2023-01-05T16:52:39.046Z,8.18
2023-01-05T16:55:20.091Z,7.93
2023-01-05T16:57:52.297Z,7.95
2023-01-05T17:00:35.029Z,7.78
2023-01-05T17:03:05.240Z,7.40
2023-01-05T17:05:34.690Z,7.45
2023-01-05T17:08:05.921Z,8.35
2023-01-05T17:10:34.723Z,7.80
2023-01-05T17:13:15.409Z,7.80
2023-01-05T17:15:45.311Z,7.18
2023-01-05T17:20:51.721Z,7.95
2023-01-05T17:23:22.480Z,6.80
2023-01-05T17:28:22.319Z,8.02
2023-01-05T17:30:50.943Z,6.82
2023-01-05T17:33:20.909Z,6.63
2023-01-05T17:35:50.351Z,7.32
2023-01-05T17:38:18.803Z,7.10
2023-01-05T17:40:47.414Z,7.55
2023-01-05T17:43:16.365Z,7.88
2023-01-05T17:45:45.597Z,6.38
2023-01-05T17:48:16.213Z,7.68
2023-01-05T17:50:46.934Z,7.47
2023-01-05T17:53:15.386Z,7.70
2023-01-05T17:55:44.055Z,7.90
2023-01-05T17:58:14.299Z,8.40
2023-01-05T18:03:22.360Z,8.48
2023-01-05T18:05:53.600Z,7.22
2023-01-05T18:08:22.476Z,7.85
2023-01-05T18:10:50.918Z,7.60
2023-01-05T18:13:21.589Z,7.60
2023-01-05T18:15:53.108Z,7.13
2023-01-05T18:18:22.049Z,7.03
2023-01-05T18:20:52.179Z,7.30
2023-01-05T18:23:21.442Z,7.28
2023-01-05T18:25:49.887Z,7.93
2023-01-05T18:28:18.294Z,7.93
2023-01-05T18:30:47.040Z,7.50
2023-01-05T18:33:15.583Z,8.38
2023-01-05T18:35:44.355Z,7.78
2023-01-05T18:38:14.206Z,7.85
2023-01-05T18:40:42.735Z,7.80
2023-01-05T18:43:11.202Z,7.35
2023-01-05T18:45:40.382Z,7.65
2023-01-05T18:48:09.704Z,8.10
2023-01-05T18:50:42.300Z,7.28
2023-01-05T18:53:10.763Z,6.45
2023-01-05T18:55:43.351Z,7.63
2023-01-05T18:58:12.610Z,7.80
2023-01-05T19:00:41.610Z,8.35
2023-01-05T19:03:10.377Z,7.93
2023-01-05T19:05:40.879Z,7.97
2023-01-05T19:08:09.457Z,7.43
2023-01-05T19:10:38.117Z,8.73
2023-01-05T19:13:07.993Z,9.23
2023-01-05T19:15:36.542Z,8.85
2023-01-05T19:18:05.132Z,8.45
2023-01-05T19:20:33.561Z,8.40
2023-01-05T19:23:02.400Z,9.32
2023-01-05T19:25:31.232Z,9.93
2023-01-05T19:28:02.361Z,10.48
2023-01-05T19:30:32.639Z,10.32
2023-01-05T19:33:02.395Z,10.27
2023-01-05T19:35:31.353Z,10.32
2023-01-05T19:38:00.492Z,10.32
2023-01-05T19:40:29.254Z,10.10
2023-01-05T19:42:57.959Z,10.27
2023-01-05T19:45:26.513Z,11.05
2023-01-05T19:47:56.290Z,11.18
2023-01-05T19:50:24.726Z,11.07
2023-01-05T19:52:53.667Z,11.10
2023-01-05T19:55:22.156Z,12.48
2023-01-05T19:57:51.043Z,11.07
2023-01-05T20:00:19.791Z,12.18
2023-01-05T20:02:48.279Z,11.88
2023-01-05T20:05:18.309Z,13.55
2023-01-05T20:07:46.729Z,13.10
2023-01-05T20:10:15.469Z,13.68
2023-01-05T20:12:44.030Z,13.23
2023-01-05T20:15:13.325Z,14.40
2023-01-05T20:17:44.496Z,15.45
2023-01-05T20:20:13.409Z,14.52
2023-01-05T20:22:43.218Z,13.88
2023-01-05T20:25:12.128Z,13.27
2023-01-05T20:27:40.938Z,14.27
2023-01-05T20:30:09.981Z,15.63
2023-01-05T20:32:38.439Z,16.58
2023-01-05T20:35:07.197Z,15.52
2023-01-05T20:37:35.659Z,16.20
2023-01-05T20:40:05.891Z,16.73
2023-01-05T20:42:34.571Z,16.13
2023-01-05T20:45:03.860Z,15.60
2023-01-05T20:47:43.113Z,15.40
2023-01-05T20:50:11.975Z,16.02
2023-01-05T20:52:40.611Z,15.85
2023-01-05T20:55:10.659Z,16.75
2023-01-05T20:57:39.232Z,16.30
2023-01-05T21:00:08.362Z,16.10
2023-01-05T21:02:36.966Z,16.50
2023-01-05T21:05:05.875Z,15.30
2023-01-05T21:07:34.501Z,15.55
2023-01-05T21:10:03.065Z,15.95
2023-01-05T21:12:32.923Z,16.27
2023-01-05T21:15:01.374Z,15.60
2023-01-05T21:17:29.884Z,15.65
2023-01-05T21:19:58.893Z,16.45
2023-01-05T21:22:27.551Z,17.20
2023-01-05T21:24:56.161Z,16.75
2023-01-05T21:27:25.016Z,16.25
2023-01-05T21:29:55.268Z,16.90
2023-01-05T21:32:23.806Z,16.67
2023-01-05T21:34:52.495Z,16.88
2023-01-05T21:37:21.271Z,17.90
2023-01-05T21:39:49.721Z,17.20
2023-01-05T21:42:35.758Z,15.98
2023-01-05T21:45:05.891Z,16.92
2023-01-05T21:47:36.011Z,16.33
2023-01-05T21:50:04.478Z,16.98
2023-01-05T21:52:50.558Z,17.02
2023-01-05T21:55:36.740Z,16.27
2023-01-05T21:58:06.949Z,17.70
2023-01-05T22:00:37.133Z,16.95
2023-01-05T22:03:05.863Z,17.52
2023-01-05T22:05:34.744Z,18.27
2023-01-05T22:08:03.170Z,17.17
2023-01-05T22:10:32.055Z,14.27
2023-01-05T22:13:00.607Z,11.18
2023-01-05T22:15:29.492Z,9.13
2023-01-05T22:17:59.269Z,9.27
2023-01-05T22:20:27.762Z,10.30
2023-01-05T22:22:56.331Z,12.18
2023-01-05T22:25:24.786Z,11.57
2023-01-05T22:27:53.261Z,13.55
2023-01-05T22:30:21.749Z,14.75
2023-01-05T22:32:50.208Z,17.88
2023-01-05T22:35:20.345Z,17.98
2023-01-05T22:37:50.823Z,17.00
2023-01-05T22:40:19.451Z,16.88
2023-01-05T22:42:47.980Z,16.63
2023-01-05T22:45:16.453Z,16.25
2023-01-05T22:47:44.867Z,15.60
2023-01-05T22:50:13.424Z,16.67
2023-01-05T22:52:43.316Z,15.68
2023-01-05T22:55:11.795Z,14.88
2023-01-05T22:57:40.195Z,14.85
2023-01-05T23:00:09.501Z,15.35
2023-01-05T23:02:38.016Z,14.32
2023-01-05T23:05:06.938Z,15.35
2023-01-05T23:07:35.345Z,15.25
2023-01-05T23:10:05.169Z,14.32
2023-01-05T23:12:34.848Z,13.30
2023-01-05T23:15:03.411Z,14.50
2023-01-05T23:17:31.837Z,14.45
2023-01-05T23:20:00.251Z,13.50
2023-01-05T23:22:28.711Z,13.60
2023-01-05T23:24:57.193Z,13.63
2023-01-05T23:27:27.099Z,13.60
2023-01-05T23:29:55.547Z,13.27
2023-01-05T23:32:23.958Z,11.68
2023-01-05T23:34:52.489Z,10.82
2023-01-05T23:37:20.916Z,11.07
2023-01-05T23:39:49.377Z,9.52
2023-01-05T23:42:31.700Z,8.75
2023-01-05T23:45:01.525Z,8.63
2023-01-05T23:47:30.203Z,7.85
2023-01-05T23:49:58.725Z,6.03
2023-01-05T23:52:27.138Z,7.03
2023-01-05T23:54:55.691Z,6.30
2023-01-05T23:57:24.098Z,6.32
2023-01-05T23:59:52.571Z,6.00
